Laurel, Florida
Current Conditions -  °F | °C
As of 12:53 AM on Thursday 23 Oct 2014 (Local Time) from KSRQ Reporting Station
Clear Clear  
Wind Chill: 21°   Ceiling: Unl
Heat Index: 21°   Visibility: 10mi
Dew Point: 17°   Wind: 14mph
Humidity: 78%   Direction: 70°ENE
Pressure: 29.94"   Gusts: NA
Location:  27.14°N, 82.46°W
Report Text: KSRQ 230453Z AUTO 07012KT 10SM CLR 21/17 A2994 RMK AO2 SLP138 T02110172 403000206
Loading
Personal Weather Stations






























Interactive Weather Map
Tropical Storm Tracking
New forecast layout! Learn more

10-Day Weather Forecast

Advertisements
Track Severe Weather on mobile